sensor_id;sensor_type;location;lat;lon;timestamp;pressure;altitude;pressure_sealevel;temperature;humidity
34931;BME280;21134;49.646;8.560;2023-12-28T00:01:09;100451.81;;;4.37;94.85
34931;BME280;21134;49.646;8.560;2023-12-28T00:03:35;100437.47;;;4.39;93.86
34931;BME280;21134;49.646;8.560;2023-12-28T00:06:04;100434.25;;;4.45;93.61
34931;BME280;21134;49.646;8.560;2023-12-28T00:08:30;100446.84;;;4.42;94.21
34931;BME280;21134;49.646;8.560;2023-12-28T00:10:57;100456.13;;;4.43;94.01
34931;BME280;21134;49.646;8.560;2023-12-28T00:13:24;100441.78;;;4.42;94.22
34931;BME280;21134;49.646;8.560;2023-12-28T00:15:50;100441.84;;;4.47;93.47
34931;BME280;21134;49.646;8.560;2023-12-28T00:18:17;100440.22;;;4.47;93.38
34931;BME280;21134;49.646;8.560;2023-12-28T00:20:43;100437.69;;;4.49;93.59
34931;BME280;21134;49.646;8.560;2023-12-28T00:23:11;100441.91;;;4.48;93.35
34931;BME280;21134;49.646;8.560;2023-12-28T00:25:38;100446.06;;;4.46;93.33
34931;BME280;21134;49.646;8.560;2023-12-28T00:28:05;100434.25;;;4.45;93.32
34931;BME280;21134;49.646;8.560;2023-12-28T00:30:31;100439.38;;;4.48;92.77
34931;BME280;21134;49.646;8.560;2023-12-28T00:32:58;100429.97;;;4.42;93.03
34931;BME280;21134;49.646;8.560;2023-12-28T00:35:25;100437.56;;;4.42;93.51
34931;BME280;21134;49.646;8.560;2023-12-28T00:37:51;100448.50;;;4.41;93.49
34931;BME280;21134;49.646;8.560;2023-12-28T00:40:19;100453.72;;;4.48;92.95
34931;BME280;21134;49.646;8.560;2023-12-28T00:42:47;100447.88;;;4.50;92.33
34931;BME280;21134;49.646;8.560;2023-12-28T00:45:13;100436.16;;;4.55;91.92
34931;BME280;21134;49.646;8.560;2023-12-28T00:47:40;100452.34;;;4.60;92.01
34931;BME280;21134;49.646;8.560;2023-12-28T00:50:08;100448.13;;;4.61;91.50
34931;BME280;21134;49.646;8.560;2023-12-28T00:52:36;100446.56;;;4.68;91.05
34931;BME280;21134;49.646;8.560;2023-12-28T00:55:04;100451.53;;;4.63;91.03
34931;BME280;21134;49.646;8.560;2023-12-28T00:57:32;100449.72;;;4.57;91.19
34931;BME280;21134;49.646;8.560;2023-12-28T00:59:58;100445.41;;;4.53;91.82
34931;BME280;21134;49.646;8.560;2023-12-28T01:02:25;100448.69;;;4.49;92.58
34931;BME280;21134;49.646;8.560;2023-12-28T01:04:51;100471.75;;;4.60;91.54
34931;BME280;21134;49.646;8.560;2023-12-28T01:07:18;100464.94;;;4.57;91.29
34931;BME280;21134;49.646;8.560;2023-12-28T01:09:44;100474.88;;;4.50;92.07
34931;BME280;21134;49.646;8.560;2023-12-28T01:12:11;100477.53;;;4.54;91.68
34931;BME280;21134;49.646;8.560;2023-12-28T01:14:47;100458.09;;;4.55;91.52
34931;BME280;21134;49.646;8.560;2023-12-28T01:17:14;100459.78;;;4.54;91.60
34931;BME280;21134;49.646;8.560;2023-12-28T01:19:40;100458.19;;;4.58;90.83
34931;BME280;21134;49.646;8.560;2023-12-28T01:22:07;100458.00;;;4.50;92.43
34931;BME280;21134;49.646;8.560;2023-12-28T01:24:33;100454.81;;;4.59;91.76
34931;BME280;21134;49.646;8.560;2023-12-28T01:26:59;100452.41;;;4.63;90.83
34931;BME280;21134;49.646;8.560;2023-12-28T01:29:26;100455.22;;;4.76;88.96
34931;BME280;21134;49.646;8.560;2023-12-28T01:31:54;100458.69;;;4.81;88.44
34931;BME280;21134;49.646;8.560;2023-12-28T01:34:20;100453.72;;;4.85;89.06
34931;BME280;21134;49.646;8.560;2023-12-28T01:36:47;100452.91;;;4.88;88.84
34931;BME280;21134;49.646;8.560;2023-12-28T01:39:13;100460.69;;;4.96;88.53
34931;BME280;21134;49.646;8.560;2023-12-28T01:41:44;100472.59;;;4.98;88.04
34931;BME280;21134;49.646;8.560;2023-12-28T01:44:10;100472.59;;;5.00;89.00
34931;BME280;21134;49.646;8.560;2023-12-28T01:46:37;100483.88;;;5.12;87.43
34931;BME280;21134;49.646;8.560;2023-12-28T01:49:05;100479.72;;;5.16;87.72
34931;BME280;21134;49.646;8.560;2023-12-28T01:51:32;100486.66;;;5.23;87.12
34931;BME280;21134;49.646;8.560;2023-12-28T01:53:59;100474.94;;;5.30;87.03
34931;BME280;21134;49.646;8.560;2023-12-28T01:56:26;100475.78;;;5.30;87.27
34931;BME280;21134;49.646;8.560;2023-12-28T01:58:53;100483.41;;;5.30;87.96
34931;BME280;21134;49.646;8.560;2023-12-28T02:01:20;100492.81;;;5.36;88.46
34931;BME280;21134;49.646;8.560;2023-12-28T02:03:46;100493.69;;;5.36;87.98
34931;BME280;21134;49.646;8.560;2023-12-28T02:06:15;100497.91;;;5.38;88.12
34931;BME280;21134;49.646;8.560;2023-12-28T02:08:42;100492.22;;;5.49;87.56
34931;BME280;21134;49.646;8.560;2023-12-28T02:11:09;100502.44;;;5.52;87.34
34931;BME280;21134;49.646;8.560;2023-12-28T02:13:35;100508.44;;;5.57;86.57
34931;BME280;21134;49.646;8.560;2023-12-28T02:16:05;100506.03;;;5.64;85.32
34931;BME280;21134;49.646;8.560;2023-12-28T02:18:36;100501.88;;;5.67;86.13
34931;BME280;21134;49.646;8.560;2023-12-28T02:21:06;100497.75;;;5.72;85.72
34931;BME280;21134;49.646;8.560;2023-12-28T02:23:33;100497.81;;;5.75;85.94
34931;BME280;21134;49.646;8.560;2023-12-28T02:26:01;100499.56;;;5.78;86.44
34931;BME280;21134;49.646;8.560;2023-12-28T02:28:28;100497.88;;;5.78;87.28
34931;BME280;21134;49.646;8.560;2023-12-28T02:30:54;100511.41;;;5.79;87.65
34931;BME280;21134;49.646;8.560;2023-12-28T02:33:26;100518.22;;;5.81;87.19
34931;BME280;21134;49.646;8.560;2023-12-28T02:35:57;100521.75;;;5.88;86.40
34931;BME280;21134;49.646;8.560;2023-12-28T02:38:28;100523.50;;;5.92;86.32
34931;BME280;21134;49.646;8.560;2023-12-28T02:40:55;100516.81;;;5.96;84.70
34931;BME280;21134;49.646;8.560;2023-12-28T02:43:23;100516.91;;;6.00;85.04
34931;BME280;21134;49.646;8.560;2023-12-28T02:45:50;100519.50;;;6.03;84.79
34931;BME280;21134;49.646;8.560;2023-12-28T02:48:17;100525.50;;;6.07;84.92
34931;BME280;21134;49.646;8.560;2023-12-28T02:50:43;100530.59;;;6.09;85.48
34931;BME280;21134;49.646;8.560;2023-12-28T02:53:10;100533.19;;;6.10;85.12
34931;BME280;21134;49.646;8.560;2023-12-28T02:55:36;100539.16;;;6.14;85.36
34931;BME280;21134;49.646;8.560;2023-12-28T02:58:03;100543.47;;;6.18;84.94
34931;BME280;21134;49.646;8.560;2023-12-28T03:00:31;100543.44;;;6.16;85.82
34931;BME280;21134;49.646;8.560;2023-12-28T03:02:58;100536.63;;;6.15;87.38
34931;BME280;21134;49.646;8.560;2023-12-28T03:05:24;100536.63;;;6.15;87.16
34931;BME280;21134;49.646;8.560;2023-12-28T03:07:51;100528.16;;;6.13;87.64
34931;BME280;21134;49.646;8.560;2023-12-28T03:10:17;100517.09;;;6.10;88.71
34931;BME280;21134;49.646;8.560;2023-12-28T03:12:44;100532.31;;;6.10;88.32
34931;BME280;21134;49.646;8.560;2023-12-28T03:15:10;100532.28;;;6.08;89.29
34931;BME280;21134;49.646;8.560;2023-12-28T03:17:39;100535.66;;;6.07;89.21
34931;BME280;21134;49.646;8.560;2023-12-28T03:20:06;100533.97;;;6.09;90.57
34931;BME280;21134;49.646;8.560;2023-12-28T03:22:33;100540.78;;;6.10;90.21
34931;BME280;21134;49.646;8.560;2023-12-28T03:25:00;100538.22;;;6.09;90.64
34931;BME280;21134;49.646;8.560;2023-12-28T03:27:26;100530.59;;;6.09;91.17
34931;BME280;21134;49.646;8.560;2023-12-28T03:29:53;100527.25;;;6.10;91.80
34931;BME280;21134;49.646;8.560;2023-12-28T03:32:19;100524.69;;;6.10;91.86
34931;BME280;21134;49.646;8.560;2023-12-28T03:34:47;100518.78;;;6.11;91.44
34931;BME280;21134;49.646;8.560;2023-12-28T03:37:14;100512.84;;;6.10;91.17
34931;BME280;21134;49.646;8.560;2023-12-28T03:39:40;100517.09;;;6.10;91.79
34931;BME280;21134;49.646;8.560;2023-12-28T03:42:07;100517.94;;;6.10;91.77
34931;BME280;21134;49.646;8.560;2023-12-28T03:44:33;100507.00;;;6.14;91.08
34931;BME280;21134;49.646;8.560;2023-12-28T03:47:00;100520.59;;;6.16;90.08
34931;BME280;21134;49.646;8.560;2023-12-28T03:49:26;100504.56;;;6.20;89.27
34931;BME280;21134;49.646;8.560;2023-12-28T03:51:54;100529.22;;;6.27;87.99
34931;BME280;21134;49.646;8.560;2023-12-28T03:54:21;100532.69;;;6.31;86.64
34931;BME280;21134;49.646;8.560;2023-12-28T03:56:47;100537.00;;;6.35;86.18
34931;BME280;21134;49.646;8.560;2023-12-28T03:59:14;100537.00;;;6.37;87.55
34931;BME280;21134;49.646;8.560;2023-12-28T04:01:41;100531.97;;;6.38;87.88
34931;BME280;21134;49.646;8.560;2023-12-28T04:04:08;100527.75;;;6.39;88.28
34931;BME280;21134;49.646;8.560;2023-12-28T04:06:35;100542.13;;;6.38;90.04
34931;BME280;21134;49.646;8.560;2023-12-28T04:09:02;100547.22;;;6.38;90.75
34931;BME280;21134;49.646;8.560;2023-12-28T04:11:29;100543.75;;;6.35;91.20
34931;BME280;21134;49.646;8.560;2023-12-28T04:13:55;100550.50;;;6.34;91.11
34931;BME280;21134;49.646;8.560;2023-12-28T04:16:22;100552.19;;;6.34;92.36
34931;BME280;21134;49.646;8.560;2023-12-28T04:18:48;100543.75;;;6.35;92.79
34931;BME280;21134;49.646;8.560;2023-12-28T04:21:15;100526.00;;;6.36;91.93
34931;BME280;21134;49.646;8.560;2023-12-28T04:23:41;100537.81;;;6.34;92.80
34931;BME280;21134;49.646;8.560;2023-12-28T04:26:09;100523.47;;;6.38;93.38
34931;BME280;21134;49.646;8.560;2023-12-28T04:28:36;100504.03;;;6.38;93.08
34931;BME280;21134;49.646;8.560;2023-12-28T04:31:03;100537.91;;;6.39;92.55
34931;BME280;21134;49.646;8.560;2023-12-28T04:33:30;100534.53;;;6.41;92.91
34931;BME280;21134;49.646;8.560;2023-12-28T04:35:57;100527.81;;;6.43;91.48
34931;BME280;21134;49.646;8.560;2023-12-28T04:38:23;100529.56;;;6.47;91.83
34931;BME280;21134;49.646;8.560;2023-12-28T04:40:50;100532.16;;;6.50;91.17
34931;BME280;21134;49.646;8.560;2023-12-28T04:43:18;100538.13;;;6.52;91.79
34931;BME280;21134;49.646;8.560;2023-12-28T04:45:44;100544.03;;;6.51;91.79
34931;BME280;21134;49.646;8.560;2023-12-28T04:48:11;100542.31;;;6.50;92.54
34931;BME280;21134;49.646;8.560;2023-12-28T04:50:37;100548.34;;;6.56;93.04
34931;BME280;21134;49.646;8.560;2023-12-28T04:53:03;100545.78;;;6.56;93.28
34931;BME280;21134;49.646;8.560;2023-12-28T04:55:30;100541.59;;;6.58;92.32
34931;BME280;21134;49.646;8.560;2023-12-28T04:57:56;100539.91;;;6.60;93.25
34931;BME280;21134;49.646;8.560;2023-12-28T05:00:24;100534.03;;;6.62;92.36
34931;BME280;21134;49.646;8.560;2023-12-28T05:02:51;100538.38;;;6.68;92.62
34931;BME280;21134;49.646;8.560;2023-12-28T05:05:17;100533.38;;;6.74;94.21
34931;BME280;21134;49.646;8.560;2023-12-28T05:07:44;100536.97;;;6.88;95.52
34931;BME280;21134;49.646;8.560;2023-12-28T05:10:10;100545.63;;;6.99;96.04
34931;BME280;21134;49.646;8.560;2023-12-28T05:12:37;100535.63;;;7.12;97.00
34931;BME280;21134;49.646;8.560;2023-12-28T05:15:04;100542.69;;;7.33;97.74
34931;BME280;21134;49.646;8.560;2023-12-28T05:17:32;100555.53;;;7.40;98.02
34931;BME280;21134;49.646;8.560;2023-12-28T05:19:59;100561.66;;;7.58;98.07
34931;BME280;21134;49.646;8.560;2023-12-28T05:22:25;100571.88;;;7.62;97.99
34931;BME280;21134;49.646;8.560;2023-12-28T05:24:51;100563.44;;;7.63;98.90
34931;BME280;21134;49.646;8.560;2023-12-28T05:27:18;100566.84;;;7.64;99.12
34931;BME280;21134;49.646;8.560;2023-12-28T05:29:45;100571.97;;;7.68;99.30
34931;BME280;21134;49.646;8.560;2023-12-28T05:32:12;100556.78;;;7.76;100.00
34931;BME280;21134;49.646;8.560;2023-12-28T05:34:39;100564.44;;;7.78;100.00
34931;BME280;21134;49.646;8.560;2023-12-28T05:37:06;100582.34;;;7.84;100.00
34931;BME280;21134;49.646;8.560;2023-12-28T05:39:32;100593.44;;;7.89;100.00
34931;BME280;21134;49.646;8.560;2023-12-28T05:41:59;100596.84;;;7.91;100.00
34931;BME280;21134;49.646;8.560;2023-12-28T05:44:25;100578.22;;;7.93;100.00
34931;BME280;21134;49.646;8.560;2023-12-28T05:46:52;100580.78;;;7.95;100.00
34931;BME280;21134;49.646;8.560;2023-12-28T05:49:18;100580.75;;;7.93;100.00
34931;BME280;21134;49.646;8.560;2023-12-28T05:51:46;100588.41;;;7.92;100.00
34931;BME280;21134;49.646;8.560;2023-12-28T05:54:13;100577.34;;;7.91;100.00
34931;BME280;21134;49.646;8.560;2023-12-28T05:56:40;100583.25;;;7.90;100.00
34931;BME280;21134;49.646;8.560;2023-12-28T05:59:06;100588.34;;;7.90;100.00
34931;BME280;21134;49.646;8.560;2023-12-28T06:01:41;100588.41;;;7.92;100.00
34931;BME280;21134;49.646;8.560;2023-12-28T06:04:07;100586.69;;;7.94;100.00
34931;BME280;21134;49.646;8.560;2023-12-28T06:06:34;100588.44;;;7.97;100.00
34931;BME280;21134;49.646;8.560;2023-12-28T06:09:02;100592.63;;;7.93;100.00
34931;BME280;21134;49.646;8.560;2023-12-28T06:11:29;100593.53;;;7.97;100.00
34931;BME280;21134;49.646;8.560;2023-12-28T06:13:56;100601.22;;;7.98;100.00
34931;BME280;21134;49.646;8.560;2023-12-28T06:16:22;100602.91;;;7.98;100.00
34931;BME280;21134;49.646;8.560;2023-12-28T06:18:50;100616.47;;;7.97;100.00
34931;BME280;21134;49.646;8.560;2023-12-28T06:21:17;100613.94;;;7.98;100.00
34931;BME280;21134;49.646;8.560;2023-12-28T06:23:43;100610.53;;;7.98;100.00
34931;BME280;21134;49.646;8.560;2023-12-28T06:26:11;100604.63;;;8.02;100.00
34931;BME280;21134;49.646;8.560;2023-12-28T06:28:37;100602.06;;;7.99;100.00
34931;BME280;21134;49.646;8.560;2023-12-28T06:31:04;100604.59;;;7.99;100.00
34931;BME280;21134;49.646;8.560;2023-12-28T06:33:30;100601.16;;;7.97;100.00
34931;BME280;21134;49.646;8.560;2023-12-28T06:35:57;100598.69;;;8.01;100.00
34931;BME280;21134;49.646;8.560;2023-12-28T06:38:24;100600.41;;;8.02;100.00
34931;BME280;21134;49.646;8.560;2023-12-28T06:40:51;100602.97;;;8.07;100.00
34931;BME280;21134;49.646;8.560;2023-12-28T06:43:18;100604.72;;;8.08;100.00
34931;BME280;21134;49.646;8.560;2023-12-28T06:45:45;100602.97;;;8.07;100.00
34931;BME280;21134;49.646;8.560;2023-12-28T06:48:11;100599.56;;;8.05;100.00
34931;BME280;21134;49.646;8.560;2023-12-28T06:50:38;100602.13;;;8.06;100.00
34931;BME280;21134;49.646;8.560;2023-12-28T06:53:04;100596.22;;;8.07;100.00
34931;BME280;21134;49.646;8.560;2023-12-28T06:55:31;100599.63;;;8.08;100.00
34931;BME280;21134;49.646;8.560;2023-12-28T06:57:58;100594.59;;;8.14;100.00
34931;BME280;21134;49.646;8.560;2023-12-28T07:00:25;100594.63;;;8.17;100.00
34931;BME280;21134;49.646;8.560;2023-12-28T07:02:52;100598.88;;;8.18;100.00
34931;BME280;21134;49.646;8.560;2023-12-28T07:05:18;100604.84;;;8.22;100.00
34931;BME280;21134;49.646;8.560;2023-12-28T07:07:45;100597.22;;;8.25;100.00
34931;BME280;21134;49.646;8.560;2023-12-28T07:10:12;100608.25;;;8.22;100.00
34931;BME280;21134;49.646;8.560;2023-12-28T07:12:38;100602.25;;;8.19;100.00
34931;BME280;21134;49.646;8.560;2023-12-28T07:15:05;100603.09;;;8.16;100.00
34931;BME280;21134;49.646;8.560;2023-12-28T07:17:33;100609.88;;;8.14;100.00
34931;BME280;21134;49.646;8.560;2023-12-28T07:19:59;100609.84;;;8.12;100.00
34931;BME280;21134;49.646;8.560;2023-12-28T07:22:26;100618.34;;;8.11;100.00
34931;BME280;21134;49.646;8.560;2023-12-28T07:24:52;100617.50;;;8.12;100.00
34931;BME280;21134;49.646;8.560;2023-12-28T07:27:19;100620.06;;;8.14;100.00
34931;BME280;21134;49.646;8.560;2023-12-28T07:29:46;100615.84;;;8.19;100.00
34931;BME280;21134;49.646;8.560;2023-12-28T07:32:12;100628.56;;;8.16;100.00
34931;BME280;21134;49.646;8.560;2023-12-28T07:34:40;100632.81;;;8.14;100.00
34931;BME280;21134;49.646;8.560;2023-12-28T07:37:07;100637.91;;;8.15;100.00
34931;BME280;21134;49.646;8.560;2023-12-28T07:39:33;100637.91;;;8.15;100.00
34931;BME280;21134;49.646;8.560;2023-12-28T07:42:00;100640.47;;;8.15;100.00
34931;BME280;21134;49.646;8.560;2023-12-28T07:44:26;100638.75;;;8.16;100.00
34931;BME280;21134;49.646;8.560;2023-12-28T07:46:53;100644.75;;;8.18;100.00
34931;BME280;21134;49.646;8.560;2023-12-28T07:49:19;100651.56;;;8.21;100.00
34931;BME280;21134;49.646;8.560;2023-12-28T07:51:47;100636.28;;;8.21;100.00
34931;BME280;21134;49.646;8.560;2023-12-28T07:54:13;100636.34;;;8.27;100.00
34931;BME280;21134;49.646;8.560;2023-12-28T07:56:40;100648.22;;;8.26;100.00
34931;BME280;21134;49.646;8.560;2023-12-28T07:59:06;100648.28;;;8.31;100.00
34931;BME280;21134;49.646;8.560;2023-12-28T08:01:34;100650.75;;;8.26;100.00
34931;BME280;21134;49.646;8.560;2023-12-28T08:04:00;100641.44;;;8.27;100.00
34931;BME280;21134;49.646;8.560;2023-12-28T08:06:28;100643.97;;;8.25;100.00
34931;BME280;21134;49.646;8.560;2023-12-28T08:08:58;100640.56;;;8.26;100.00
34931;BME280;21134;49.646;8.560;2023-12-28T08:11:26;100648.22;;;8.26;100.00
34931;BME280;21134;49.646;8.560;2023-12-28T08:13:52;100647.47;;;8.33;100.00
34931;BME280;21134;49.646;8.560;2023-12-28T08:16:19;100649.19;;;8.37;100.00
34931;BME280;21134;49.646;8.560;2023-12-28T08:18:45;100650.97;;;8.42;100.00
34931;BME280;21134;49.646;8.560;2023-12-28T08:21:12;100651.00;;;8.43;100.00
34931;BME280;21134;49.646;8.560;2023-12-28T08:23:38;100643.38;;;8.48;100.00
34931;BME280;21134;49.646;8.560;2023-12-28T08:26:06;100643.44;;;8.54;100.00
34931;BME280;21134;49.646;8.560;2023-12-28T08:28:32;100648.56;;;8.57;100.00
34931;BME280;21134;49.646;8.560;2023-12-28T08:30:59;100645.16;;;8.56;100.00
34931;BME280;21134;49.646;8.560;2023-12-28T08:33:25;100642.63;;;8.58;100.00
34931;BME280;21134;49.646;8.560;2023-12-28T08:35:52;100642.78;;;8.73;100.00
34931;BME280;21134;49.646;8.560;2023-12-28T08:38:19;100644.50;;;8.74;100.00
34931;BME280;21134;49.646;8.560;2023-12-28T08:40:45;100647.06;;;8.79;100.00
34931;BME280;21134;49.646;8.560;2023-12-28T08:43:13;100634.38;;;8.87;100.00
34931;BME280;21134;49.646;8.560;2023-12-28T08:45:39;100645.47;;;8.87;100.00
34931;BME280;21134;49.646;8.560;2023-12-28T08:48:07;100638.72;;;8.94;100.00
34931;BME280;21134;49.646;8.560;2023-12-28T08:50:33;100639.56;;;8.96;100.00
34931;BME280;21134;49.646;8.560;2023-12-28T08:52:59;100631.09;;;8.97;100.00
34931;BME280;21134;49.646;8.560;2023-12-28T08:55:26;100631.09;;;9.00;100.00
34931;BME280;21134;49.646;8.560;2023-12-28T08:57:53;100634.44;;;8.96;100.00
34931;BME280;21134;49.646;8.560;2023-12-28T09:00:21;100639.56;;;8.96;100.00
34931;BME280;21134;49.646;8.560;2023-12-28T09:02:47;100646.34;;;8.95;100.00
34931;BME280;21134;49.646;8.560;2023-12-28T09:05:14;100644.66;;;8.94;100.00
34931;BME280;21134;49.646;8.560;2023-12-28T09:07:40;100642.91;;;8.89;100.00
34931;BME280;21134;49.646;8.560;2023-12-28T09:10:09;100636.94;;;8.87;100.00
34931;BME280;21134;49.646;8.560;2023-12-28T09:12:35;100638.66;;;8.88;100.00
34931;BME280;21134;49.646;8.560;2023-12-28T09:15:03;100642.88;;;8.85;100.00
34931;BME280;21134;49.646;8.560;2023-12-28T09:17:31;100638.66;;;8.88;100.00
34931;BME280;21134;49.646;8.560;2023-12-28T09:19:58;100638.63;;;8.86;100.00
34931;BME280;21134;49.646;8.560;2023-12-28T09:22:24;100642.88;;;8.84;100.00
34931;BME280;21134;49.646;8.560;2023-12-28T09:24:51;100647.09;;;8.82;100.00
34931;BME280;21134;49.646;8.560;2023-12-28T09:27:17;100652.22;;;8.83;100.00
34931;BME280;21134;49.646;8.560;2023-12-28T09:29:44;100651.34;;;8.81;100.00
34931;BME280;21134;49.646;8.560;2023-12-28T09:32:11;100656.50;;;8.84;100.00
34931;BME280;21134;49.646;8.560;2023-12-28T09:34:40;100658.25;;;8.92;100.00
34931;BME280;21134;49.646;8.560;2023-12-28T09:37:06;100661.66;;;8.91;100.00
34931;BME280;21134;49.646;8.560;2023-12-28T09:39:33;100667.63;;;8.94;100.00
34931;BME280;21134;49.646;8.560;2023-12-28T09:42:02;100666.81;;;8.98;100.00
34931;BME280;21134;49.646;8.560;2023-12-28T09:44:31;100671.94;;;9.03;100.00
34931;BME280;21134;49.646;8.560;2023-12-28T09:46:58;100670.22;;;8.99;100.00
34931;BME280;21134;49.646;8.560;2023-12-28T09:49:25;100677.06;;;9.06;100.00
34931;BME280;21134;49.646;8.560;2023-12-28T09:51:53;100674.53;;;9.07;100.00
34931;BME280;21134;49.646;8.560;2023-12-28T09:54:19;100673.78;;;9.19;100.00
34931;BME280;21134;49.646;8.560;2023-12-28T09:56:46;100678.00;;;9.17;100.00
34931;BME280;21134;49.646;8.560;2023-12-28T09:59:13;100678.91;;;9.22;100.00
34931;BME280;21134;49.646;8.560;2023-12-28T10:01:41;100670.38;;;9.20;100.00
34931;BME280;21134;49.646;8.560;2023-12-28T10:04:08;100662.69;;;9.19;100.00
34931;BME280;21134;49.646;8.560;2023-12-28T10:06:35;100661.06;;;9.22;100.00
34931;BME280;21134;49.646;8.560;2023-12-28T10:09:02;100655.16;;;9.32;100.00
34931;BME280;21134;49.646;8.560;2023-12-28T10:11:29;100665.44;;;9.46;100.00
34931;BME280;21134;49.646;8.560;2023-12-28T10:13:56;100664.66;;;9.52;100.00
34931;BME280;21134;49.646;8.560;2023-12-28T10:16:23;100671.44;;;9.53;100.00
34931;BME280;21134;49.646;8.560;2023-12-28T10:18:49;100668.94;;;9.59;100.00
34931;BME280;21134;49.646;8.560;2023-12-28T10:21:16;100668.97;;;9.61;100.00
34931;BME280;21134;49.646;8.560;2023-12-28T10:23:43;100668.97;;;9.64;100.00
34931;BME280;21134;49.646;8.560;2023-12-28T10:26:11;100659.63;;;9.69;100.00
34931;BME280;21134;49.646;8.560;2023-12-28T10:28:37;100664.75;;;9.70;100.00
34931;BME280;21134;49.646;8.560;2023-12-28T10:31:04;100663.91;;;9.76;100.00
34931;BME280;21134;49.646;8.560;2023-12-28T10:33:34;100662.25;;;9.80;100.00
34931;BME280;21134;49.646;8.560;2023-12-28T10:36:03;100662.25;;;9.86;100.00
34931;BME280;21134;49.646;8.560;2023-12-28T10:38:34;100669.09;;;9.90;99.49
34931;BME280;21134;49.646;8.560;2023-12-28T10:41:02;100659.75;;;9.96;99.90
34931;BME280;21134;49.646;8.560;2023-12-28T10:43:35;100664.06;;;10.05;98.99
34931;BME280;21134;49.646;8.560;2023-12-28T10:46:05;100665.78;;;10.12;98.54
34931;BME280;21134;49.646;8.560;2023-12-28T10:48:36;100659.81;;;10.16;99.53
34931;BME280;21134;49.646;8.560;2023-12-28T10:51:07;100668.34;;;10.17;98.53
34931;BME280;21134;49.646;8.560;2023-12-28T10:53:38;100672.59;;;10.12;98.49
34931;BME280;21134;49.646;8.560;2023-12-28T10:56:16;100670.91;;;10.15;98.63
34931;BME280;21134;49.646;8.560;2023-12-28T10:58:48;100659.00;;;10.23;98.90
34931;BME280;21134;49.646;8.560;2023-12-28T11:01:21;100667.53;;;10.18;98.88
34931;BME280;21134;49.646;8.560;2023-12-28T11:03:53;100668.34;;;10.17;98.62
34931;BME280;21134;49.646;8.560;2023-12-28T11:06:25;100668.34;;;10.17;99.10
34931;BME280;21134;49.646;8.560;2023-12-28T11:08:53;100663.25;;;10.23;97.44
34931;BME280;21134;49.646;8.560;2023-12-28T11:11:21;100664.97;;;10.18;97.41
34931;BME280;21134;49.646;8.560;2023-12-28T11:13:50;100661.53;;;10.13;97.44
34931;BME280;21134;49.646;8.560;2023-12-28T11:16:18;100665.81;;;10.18;97.34
34931;BME280;21134;49.646;8.560;2023-12-28T11:18:45;100658.97;;;10.20;97.37
34931;BME280;21134;49.646;8.560;2023-12-28T11:21:13;100650.47;;;10.21;96.89
34931;BME280;21134;49.646;8.560;2023-12-28T11:23:40;100643.69;;;10.27;97.46
34931;BME280;21134;49.646;8.560;2023-12-28T11:26:15;100641.16;;;10.33;96.73
34931;BME280;21134;49.646;8.560;2023-12-28T11:28:42;100640.31;;;10.38;95.09
34931;BME280;21134;49.646;8.560;2023-12-28T11:31:10;100633.50;;;10.39;95.23
34931;BME280;21134;49.646;8.560;2023-12-28T11:33:43;100633.50;;;10.42;94.75
34931;BME280;21134;49.646;8.560;2023-12-28T11:36:10;100634.38;;;10.41;95.12
34931;BME280;21134;49.646;8.560;2023-12-28T11:38:36;100628.38;;;10.33;95.35
34931;BME280;21134;49.646;8.560;2023-12-28T11:41:05;100636.03;;;10.28;95.80
34931;BME280;21134;49.646;8.560;2023-12-28T11:43:34;100629.16;;;10.22;96.28
34931;BME280;21134;49.646;8.560;2023-12-28T11:46:02;100631.69;;;10.21;95.81
34931;BME280;21134;49.646;8.560;2023-12-28T11:48:32;100628.31;;;10.16;95.96
34931;BME280;21134;49.646;8.560;2023-12-28T11:51:00;100625.72;;;10.14;96.52
34931;BME280;21134;49.646;8.560;2023-12-28T11:53:27;100618.06;;;10.14;96.67
34931;BME280;21134;49.646;8.560;2023-12-28T11:55:59;100618.91;;;10.12;96.39
34931;BME280;21134;49.646;8.560;2023-12-28T11:58:27;100624.84;;;10.08;96.58
34931;BME280;21134;49.646;8.560;2023-12-28T12:00:54;100612.94;;;10.10;96.88
34931;BME280;21134;49.646;8.560;2023-12-28T12:03:20;100599.34;;;10.21;98.36
34931;BME280;21134;49.646;8.560;2023-12-28T12:05:48;100602.75;;;10.19;100.00
34931;BME280;21134;49.646;8.560;2023-12-28T12:08:16;100603.56;;;10.16;100.00
34931;BME280;21134;49.646;8.560;2023-12-28T12:10:42;100596.78;;;10.15;100.00
34931;BME280;21134;49.646;8.560;2023-12-28T12:13:09;100598.47;;;10.21;100.00
34931;BME280;21134;49.646;8.560;2023-12-28T12:15:36;100595.91;;;10.09;100.00
34931;BME280;21134;49.646;8.560;2023-12-28T12:18:03;100596.72;;;10.05;100.00
34931;BME280;21134;49.646;8.560;2023-12-28T12:20:30;100594.19;;;10.12;100.00
34931;BME280;21134;49.646;8.560;2023-12-28T12:22:59;100595.84;;;9.95;100.00
34931;BME280;21134;49.646;8.560;2023-12-28T12:25:25;100599.22;;;9.85;100.00
34931;BME280;21134;49.646;8.560;2023-12-28T12:27:52;100594.06;;;9.72;100.00
34931;BME280;21134;49.646;8.560;2023-12-28T12:30:19;100597.41;;;9.62;100.00
34931;BME280;21134;49.646;8.560;2023-12-28T12:32:45;100600.81;;;9.58;100.00
34931;BME280;21134;49.646;8.560;2023-12-28T12:35:12;100593.94;;;9.46;100.00
34931;BME280;21134;49.646;8.560;2023-12-28T12:37:40;100597.28;;;9.38;100.00
34931;BME280;21134;49.646;8.560;2023-12-28T12:40:09;100587.03;;;9.31;100.00
34931;BME280;21134;49.646;8.560;2023-12-28T12:42:36;100578.50;;;9.23;100.00
34931;BME280;21134;49.646;8.560;2023-12-28T12:45:03;100580.19;;;9.21;100.00
34931;BME280;21134;49.646;8.560;2023-12-28T12:47:32;100569.94;;;9.14;100.00
34931;BME280;21134;49.646;8.560;2023-12-28T12:49:58;100564.81;;;9.11;100.00
34931;BME280;21134;49.646;8.560;2023-12-28T12:52:25;100559.72;;;9.14;100.00
34931;BME280;21134;49.646;8.560;2023-12-28T12:54:54;100565.69;;;9.16;100.00